createdAt,value
2023-05-17T00:01:21.793Z,101346.05
2023-05-17T00:03:48.299Z,101345.00
2023-05-17T00:06:14.811Z,101344.75
2023-05-17T00:08:41.361Z,101342.89
2023-05-17T00:11:08.070Z,101338.79
2023-05-17T00:13:34.697Z,101336.48
2023-05-17T00:16:01.223Z,101337.84
2023-05-17T00:18:27.883Z,101336.54
2023-05-17T00:20:54.388Z,101334.83
2023-05-17T00:23:20.972Z,101334.94
2023-05-17T00:25:47.662Z,101337.66
2023-05-17T00:28:14.090Z,101331.06
2023-05-17T00:30:40.615Z,101333.64
2023-05-17T00:33:07.301Z,101336.58
2023-05-17T00:35:33.920Z,101341.15
2023-05-17T00:38:00.467Z,101342.70
2023-05-17T00:40:26.925Z,101341.73
2023-05-17T00:42:53.459Z,101348.27
2023-05-17T00:45:20.007Z,101349.32
2023-05-17T00:47:46.676Z,101348.54
2023-05-17T00:50:13.402Z,101354.60
2023-05-17T00:52:40.277Z,101352.98
2023-05-17T00:55:07.810Z,101354.55
2023-05-17T00:57:34.469Z,101351.70
2023-05-17T01:00:02.034Z,101352.14
2023-05-17T01:02:28.691Z,101350.98
2023-05-17T01:04:55.476Z,101357.79
2023-05-17T01:07:22.200Z,101353.91
2023-05-17T01:09:49.392Z,101358.76
2023-05-17T01:12:36.351Z,101361.39
2023-05-17T01:15:15.854Z,101362.21
2023-05-17T01:18:18.360Z,101358.98
2023-05-17T01:20:46.261Z,101361.97
2023-05-17T01:23:42.868Z,101362.30
2023-05-17T01:26:19.237Z,101359.93
2023-05-17T01:28:49.644Z,101360.23
2023-05-17T01:31:17.376Z,101361.35
2023-05-17T01:33:44.034Z,101357.15
2023-05-17T01:36:10.869Z,101358.51
2023-05-17T01:38:37.589Z,101358.38
2023-05-17T01:41:28.751Z,101358.66
2023-05-17T01:44:17.055Z,101354.42
2023-05-17T01:46:44.106Z,101354.17
2023-05-17T01:49:30.023Z,101359.66
2023-05-17T01:52:27.473Z,101366.27
2023-05-17T01:55:04.607Z,101365.95
2023-05-17T01:57:35.727Z,101370.81
2023-05-17T02:00:06.689Z,101372.31
2023-05-17T02:02:33.270Z,101370.80
2023-05-17T02:04:59.928Z,101374.61
2023-05-17T02:07:26.579Z,101374.66
2023-05-17T02:09:53.202Z,101378.15
2023-05-17T02:12:19.729Z,101375.77
2023-05-17T02:14:46.324Z,101380.16
2023-05-17T02:17:13.405Z,101378.74
2023-05-17T02:19:40.093Z,101380.73
2023-05-17T02:22:06.558Z,101375.98
2023-05-17T02:24:33.132Z,101383.65
2023-05-17T02:26:59.645Z,101376.24
2023-05-17T02:29:26.178Z,101383.77
2023-05-17T02:31:52.881Z,101381.87
2023-05-17T02:34:19.404Z,101383.70
2023-05-17T02:36:46.113Z,101384.65
2023-05-17T02:39:12.736Z,101385.19
2023-05-17T02:41:39.301Z,101386.09
2023-05-17T02:44:05.920Z,101387.18
2023-05-17T02:46:32.547Z,101389.30
2023-05-17T02:48:59.019Z,101394.31
2023-05-17T02:51:25.832Z,101399.91
2023-05-17T02:53:52.495Z,101400.40
2023-05-17T02:56:19.071Z,101404.48
2023-05-17T02:58:45.609Z,101403.56
2023-05-17T03:01:12.112Z,101408.13
2023-05-17T03:03:39.038Z,101408.29
2023-05-17T03:06:05.720Z,101413.74
2023-05-17T03:08:32.541Z,101412.45
2023-05-17T03:10:59.042Z,101417.03
2023-05-17T03:13:25.952Z,101416.89
2023-05-17T03:15:52.621Z,101422.43
2023-05-17T03:18:19.264Z,101422.07
2023-05-17T03:20:45.775Z,101420.88
2023-05-17T03:23:12.584Z,101420.54
2023-05-17T03:25:39.151Z,101425.35
2023-05-17T03:28:05.621Z,101429.09
2023-05-17T03:30:32.208Z,101429.77
2023-05-17T03:32:59.004Z,101431.18
2023-05-17T03:35:25.623Z,101436.98
2023-05-17T03:37:52.335Z,101440.45
2023-05-17T03:40:18.857Z,101443.71
2023-05-17T03:42:45.934Z,101447.38
2023-05-17T03:45:13.078Z,101452.60
2023-05-17T03:47:39.701Z,101451.39
2023-05-17T03:50:07.017Z,101454.84
2023-05-17T03:52:33.624Z,101458.61
2023-05-17T03:55:00.319Z,101458.27
2023-05-17T03:57:27.075Z,101464.23
2023-05-17T03:59:53.638Z,101464.23
2023-05-17T04:02:20.471Z,101469.56
2023-05-17T04:04:50.915Z,101470.30
2023-05-17T04:07:17.664Z,101475.40
2023-05-17T04:09:44.748Z,101478.68
2023-05-17T04:12:11.417Z,101484.94
2023-05-17T04:14:38.595Z,101489.09
2023-05-17T04:17:05.302Z,101492.66
2023-05-17T04:19:32.311Z,101493.55
2023-05-17T04:21:59.241Z,101488.81
2023-05-17T04:24:25.798Z,101495.09
2023-05-17T04:26:52.461Z,101500.75
2023-05-17T04:29:19.211Z,101504.16
2023-05-17T04:31:48.887Z,101507.06
2023-05-17T04:34:18.122Z,101508.31
2023-05-17T04:36:44.776Z,101512.33
2023-05-17T04:39:11.389Z,101513.65
2023-05-17T04:41:38.266Z,101522.75
2023-05-17T04:44:07.356Z,101526.41
2023-05-17T04:46:34.067Z,101528.42
2023-05-17T04:49:01.114Z,101532.19
2023-05-17T04:51:27.692Z,101536.45
2023-05-17T04:53:54.825Z,101541.23
2023-05-17T04:56:21.616Z,101542.66
2023-05-17T04:58:49.590Z,101546.89
2023-05-17T05:01:17.533Z,101549.73
2023-05-17T05:03:44.281Z,101556.70
2023-05-17T05:06:11.970Z,101552.33
2023-05-17T05:08:38.690Z,101559.00
2023-05-17T05:11:05.369Z,101564.95
2023-05-17T05:13:31.980Z,101562.95
2023-05-17T05:15:58.589Z,101565.46
2023-05-17T05:18:25.772Z,101566.20
2023-05-17T05:20:52.640Z,101569.09
2023-05-17T05:23:22.429Z,101570.91
2023-05-17T05:25:49.013Z,101574.16
2023-05-17T05:28:15.605Z,101583.19
2023-05-17T05:30:42.401Z,101590.54
2023-05-17T05:33:09.419Z,101590.04
2023-05-17T05:35:36.219Z,101593.15
2023-05-17T05:38:03.449Z,101599.98
2023-05-17T05:40:30.602Z,101604.29
2023-05-17T05:42:57.672Z,101602.17
2023-05-17T05:45:24.599Z,101606.56
2023-05-17T05:47:51.749Z,101609.95
2023-05-17T05:50:18.616Z,101616.02
2023-05-17T05:52:45.677Z,101614.45
2023-05-17T05:55:12.734Z,101614.03
2023-05-17T05:57:39.291Z,101619.33
2023-05-17T06:00:07.113Z,101624.05
2023-05-17T06:02:34.699Z,101622.98
2023-05-17T06:05:03.426Z,101626.92
2023-05-17T06:07:30.229Z,101621.73
2023-05-17T06:09:56.893Z,101633.23
2023-05-17T06:12:23.696Z,101634.01
2023-05-17T06:14:50.227Z,101629.88
2023-05-17T06:17:16.824Z,101630.12
2023-05-17T06:19:43.407Z,101636.25
2023-05-17T06:22:09.999Z,101640.06
2023-05-17T06:24:36.816Z,101642.31
2023-05-17T06:27:03.633Z,101640.61
2023-05-17T06:29:30.152Z,101646.14
2023-05-17T06:31:58.129Z,101642.69
2023-05-17T06:34:24.693Z,101653.48
2023-05-17T06:36:51.960Z,101650.77
2023-05-17T06:39:18.736Z,101651.15
2023-05-17T06:41:45.353Z,101653.20
2023-05-17T06:44:12.257Z,101651.37
2023-05-17T06:46:38.946Z,101658.02
2023-05-17T06:49:05.827Z,101658.06
2023-05-17T06:51:32.656Z,101653.20
2023-05-17T06:53:59.398Z,101657.89
2023-05-17T06:56:26.693Z,101662.85
2023-05-17T06:58:53.373Z,101669.09
2023-05-17T07:01:20.739Z,101671.91
2023-05-17T07:03:47.538Z,101689.63
2023-05-17T07:06:14.254Z,101679.21
2023-05-17T07:08:40.826Z,101678.26
2023-05-17T07:11:07.515Z,101680.38
2023-05-17T07:13:34.311Z,101688.63
2023-05-17T07:16:01.014Z,101690.73
2023-05-17T07:18:27.916Z,101692.92
2023-05-17T07:20:54.638Z,101693.96
2023-05-17T07:23:21.452Z,101701.41
2023-05-17T07:25:48.087Z,101700.58
2023-05-17T07:28:14.889Z,101704.52
2023-05-17T07:30:41.469Z,101708.13
2023-05-17T07:33:08.374Z,101716.02
2023-05-17T07:35:35.118Z,101714.44
2023-05-17T07:38:01.956Z,101723.38
2023-05-17T07:40:29.246Z,101720.76
2023-05-17T07:42:55.798Z,101721.60
2023-05-17T07:45:22.477Z,101722.70
2023-05-17T07:47:49.308Z,101731.09
2023-05-17T07:50:16.079Z,101731.88
2023-05-17T07:52:42.550Z,101733.79
2023-05-17T07:55:09.947Z,101741.11
2023-05-17T07:57:36.971Z,101740.51
2023-05-17T08:00:04.332Z,101748.41
2023-05-17T08:02:30.992Z,101748.41
2023-05-17T08:04:57.643Z,101752.79
2023-05-17T08:07:24.270Z,101756.96
2023-05-17T08:09:51.166Z,101765.11
2023-05-17T08:12:17.741Z,101762.11
2023-05-17T08:14:44.679Z,101774.08
2023-05-17T08:17:11.391Z,101773.38
2023-05-17T08:19:39.048Z,101770.39
2023-05-17T08:22:05.629Z,101769.40
2023-05-17T08:24:32.175Z,101768.93
2023-05-17T08:26:58.877Z,101769.35
2023-05-17T08:29:25.593Z,101766.81
2023-05-17T08:31:52.584Z,101768.14
2023-05-17T08:34:19.118Z,101768.11
2023-05-17T08:36:45.826Z,101770.20
2023-05-17T08:39:12.961Z,101780.42
2023-05-17T08:41:40.082Z,101785.50
2023-05-17T08:44:07.661Z,101787.25
2023-05-17T08:46:36.978Z,101789.11
2023-05-17T08:49:06.418Z,101790.13
2023-05-17T08:51:33.398Z,101785.48
2023-05-17T08:54:00.148Z,101781.85
2023-05-17T08:56:30.036Z,101782.91
2023-05-17T08:58:58.320Z,101786.30
2023-05-17T09:01:26.847Z,101790.05
2023-05-17T09:03:55.035Z,101785.56
2023-05-17T09:06:23.248Z,101774.86
2023-05-17T09:08:58.281Z,101787.45
2023-05-17T09:11:28.198Z,101783.61
2023-05-17T09:14:02.012Z,101789.48
2023-05-17T09:16:30.233Z,101784.60
2023-05-17T09:18:58.207Z,101790.46
2023-05-17T09:21:26.527Z,101786.45
2023-05-17T09:24:05.568Z,101786.99
2023-05-17T09:26:43.115Z,101784.19
2023-05-17T09:29:11.589Z,101789.86
2023-05-17T09:31:39.315Z,101781.65
2023-05-17T09:34:07.985Z,101780.48
2023-05-17T09:36:38.772Z,101775.79
2023-05-17T09:39:10.618Z,101772.14
2023-05-17T09:41:46.735Z,101779.42
2023-05-17T09:44:14.681Z,101778.10
2023-05-17T09:46:47.406Z,101778.63
2023-05-17T09:49:15.076Z,101779.89
2023-05-17T09:51:44.769Z,101787.31
2023-05-17T09:54:11.807Z,101787.67
2023-05-17T09:56:39.643Z,101790.46
2023-05-17T09:59:16.385Z,101786.27
2023-05-17T10:01:45.611Z,101778.09
2023-05-17T10:04:13.955Z,101776.08
2023-05-17T10:09:15.624Z,101776.03
2023-05-17T10:11:46.137Z,101774.42
2023-05-17T10:14:27.139Z,101767.77
2023-05-17T10:16:54.781Z,101773.52
2023-05-17T10:19:21.865Z,101776.13
2023-05-17T10:21:50.945Z,101785.46
2023-05-17T10:24:19.982Z,101788.23
2023-05-17T10:26:46.950Z,101796.26
2023-05-17T10:29:15.138Z,101796.77
2023-05-17T10:31:43.552Z,101794.48
2023-05-17T10:34:11.905Z,101783.02
2023-05-17T10:36:39.188Z,101803.98
2023-05-17T10:39:09.010Z,101799.32
2023-05-17T10:41:38.432Z,101791.85
2023-05-17T10:44:08.335Z,101789.21
2023-05-17T10:46:36.288Z,101783.52
2023-05-17T10:49:04.070Z,101783.70
2023-05-17T10:51:33.324Z,101797.88
2023-05-17T10:54:02.978Z,101787.95
2023-05-17T10:56:33.698Z,101788.80
2023-05-17T10:59:21.792Z,101789.79
2023-05-17T11:01:50.782Z,101790.71
2023-05-17T11:04:26.139Z,101788.23
2023-05-17T11:06:54.961Z,101782.15
2023-05-17T11:09:24.124Z,101789.80
2023-05-17T11:12:10.708Z,101787.50
2023-05-17T11:15:08.670Z,101787.34
2023-05-17T11:17:37.000Z,101789.67
2023-05-17T11:20:16.991Z,101792.16
2023-05-17T11:23:16.436Z,101783.38
2023-05-17T11:25:43.015Z,101777.41
2023-05-17T11:28:20.775Z,101772.10
2023-05-17T11:30:52.088Z,101771.13
2023-05-17T11:33:29.841Z,101782.25
2023-05-17T11:36:06.817Z,101779.15
2023-05-17T11:38:34.478Z,101789.13
2023-05-17T11:41:26.688Z,101789.63
2023-05-17T11:43:54.508Z,101796.04
2023-05-17T11:46:23.777Z,101792.30
2023-05-17T11:48:52.829Z,101799.67
2023-05-17T11:51:22.608Z,101793.52
2023-05-17T11:53:53.285Z,101789.52
2023-05-17T11:56:24.076Z,101799.91
2023-05-17T11:58:54.687Z,101804.96
2023-05-17T12:01:21.461Z,101790.75
2023-05-17T12:03:57.032Z,101792.06
2023-05-17T12:06:25.074Z,101796.51
2023-05-17T12:08:51.692Z,101805.68
2023-05-17T12:11:18.831Z,101816.27
2023-05-17T12:13:46.926Z,101813.89
2023-05-17T12:16:17.549Z,101812.32
2023-05-17T12:18:47.536Z,101814.84
2023-05-17T12:21:15.551Z,101812.52
2023-05-17T12:23:44.582Z,101813.20
2023-05-17T12:26:14.442Z,101820.96
2023-05-17T12:28:47.206Z,101821.61
2023-05-17T12:31:18.033Z,101832.11
2023-05-17T12:33:45.450Z,101823.94
2023-05-17T12:36:13.183Z,101825.67
2023-05-17T12:38:44.254Z,101822.68
2023-05-17T12:41:12.944Z,101820.67
2023-05-17T12:43:40.298Z,101827.02
2023-05-17T12:46:12.856Z,101823.27
2023-05-17T12:48:41.593Z,101822.23
2023-05-17T12:51:19.511Z,101819.27
2023-05-17T12:53:57.043Z,101817.64
2023-05-17T12:56:28.233Z,101829.67
2023-05-17T12:59:05.523Z,101833.84
2023-05-17T13:01:36.992Z,101824.48
2023-05-17T13:04:04.219Z,101826.88
2023-05-17T13:06:53.280Z,101831.25
2023-05-17T13:09:22.516Z,101828.95
2023-05-17T13:11:56.008Z,101828.86
2023-05-17T13:14:47.057Z,101834.41
2023-05-17T13:17:44.665Z,101831.92
2023-05-17T13:20:11.730Z,101831.23
2023-05-17T13:22:46.637Z,101834.21
2023-05-17T13:25:15.113Z,101839.43
2023-05-17T13:27:46.664Z,101831.81
2023-05-17T13:30:13.477Z,101838.75
2023-05-17T13:32:40.446Z,101825.33
2023-05-17T13:35:07.520Z,101826.52
2023-05-17T13:37:35.628Z,101828.25
2023-05-17T13:40:05.178Z,101830.30
2023-05-17T13:42:32.132Z,101829.30
2023-05-17T13:44:58.709Z,101825.38
2023-05-17T13:47:25.407Z,101818.38
2023-05-17T13:49:51.936Z,101825.33
2023-05-17T13:52:18.957Z,101824.11
2023-05-17T13:54:45.386Z,101821.27
2023-05-17T13:57:12.098Z,101817.88
2023-05-17T13:59:39.236Z,101813.77
2023-05-17T14:02:05.887Z,101808.66
2023-05-17T14:04:33.072Z,101809.89
2023-05-17T14:06:59.548Z,101813.41
2023-05-17T14:09:26.026Z,101800.25
2023-05-17T14:11:52.496Z,101802.23
2023-05-17T14:14:19.064Z,101808.08
2023-05-17T14:16:45.883Z,101816.05
2023-05-17T14:19:12.584Z,101815.45
2023-05-17T14:21:39.267Z,101820.03
2023-05-17T14:24:06.492Z,101818.17
2023-05-17T14:26:33.009Z,101819.39
2023-05-17T14:28:59.736Z,101825.95
2023-05-17T14:31:29.764Z,101817.45
2023-05-17T14:33:56.650Z,101808.86
2023-05-17T14:36:23.119Z,101812.61
2023-05-17T14:38:49.708Z,101810.06
2023-05-17T14:41:16.370Z,101805.60
2023-05-17T14:43:42.835Z,101811.60
2023-05-17T14:46:09.336Z,101812.79
2023-05-17T14:48:36.158Z,101820.27
2023-05-17T14:51:03.749Z,101823.83
2023-05-17T14:53:30.710Z,101827.79
2023-05-17T14:55:57.870Z,101827.41
2023-05-17T14:58:25.118Z,101828.66
2023-05-17T15:01:05.369Z,101819.04
2023-05-17T15:03:33.123Z,101818.84
2023-05-17T15:06:00.625Z,101823.00
2023-05-17T15:08:28.045Z,101822.58
2023-05-17T15:10:54.621Z,101832.38
2023-05-17T15:13:21.560Z,101829.08
2023-05-17T15:15:48.399Z,101825.50
2023-05-17T15:18:15.041Z,101824.38
2023-05-17T15:20:42.190Z,101827.33
2023-05-17T15:23:08.818Z,101832.95
2023-05-17T15:25:35.305Z,101830.13
2023-05-17T15:28:01.958Z,101841.23
2023-05-17T15:30:28.692Z,101848.98
2023-05-17T15:32:56.578Z,101853.48
2023-05-17T15:35:23.153Z,101852.83
2023-05-17T15:37:52.536Z,101850.99
2023-05-17T15:40:21.597Z,101850.36
2023-05-17T15:42:48.317Z,101843.48
2023-05-17T15:45:14.892Z,101836.84
2023-05-17T15:47:43.440Z,101835.93
2023-05-17T15:50:11.019Z,101841.48
2023-05-17T15:52:37.835Z,101842.83
2023-05-17T15:55:04.948Z,101844.34
2023-05-17T15:57:31.478Z,101840.50
2023-05-17T15:59:57.950Z,101844.88
2023-05-17T16:02:24.705Z,101843.10
2023-05-17T16:04:54.997Z,101842.50
2023-05-17T16:07:21.972Z,101848.27
2023-05-17T16:09:48.700Z,101851.73
2023-05-17T16:12:15.341Z,101860.56
2023-05-17T16:14:41.984Z,101856.27
2023-05-17T16:17:08.491Z,101858.65
2023-05-17T16:19:35.078Z,101859.85
2023-05-17T16:22:01.894Z,101868.59
2023-05-17T16:24:28.448Z,101871.33
2023-05-17T16:26:55.045Z,101868.09
2023-05-17T16:29:21.567Z,101870.09
2023-05-17T16:31:48.781Z,101871.02
2023-05-17T16:34:15.514Z,101872.09
2023-05-17T16:36:42.378Z,101871.66
2023-05-17T16:39:08.981Z,101876.16
2023-05-17T16:41:35.945Z,101873.69
2023-05-17T16:44:02.479Z,101875.02
2023-05-17T16:46:29.097Z,101875.52
2023-05-17T16:48:55.865Z,101890.24
2023-05-17T16:51:22.335Z,101896.53
2023-05-17T16:53:49.196Z,101896.19
2023-05-17T16:56:16.054Z,101898.05
2023-05-17T16:58:42.725Z,101893.81
2023-05-17T17:01:09.399Z,101901.90
2023-05-17T17:03:35.955Z,101907.73
2023-05-17T17:06:02.558Z,101906.89
2023-05-17T17:08:29.192Z,101906.93
2023-05-17T17:10:55.898Z,101907.86
2023-05-17T17:13:22.509Z,101909.15
2023-05-17T17:15:50.940Z,101911.41
2023-05-17T17:18:17.696Z,101913.61
2023-05-17T17:20:45.146Z,101907.63
2023-05-17T17:23:11.771Z,101909.10
2023-05-17T17:25:38.443Z,101908.72
2023-05-17T17:28:05.289Z,101908.05
2023-05-17T17:30:32.221Z,101911.30
2023-05-17T17:32:59.292Z,101913.27
2023-05-17T17:35:26.182Z,101914.40
2023-05-17T17:37:53.272Z,101919.39
2023-05-17T17:40:20.108Z,101920.02
2023-05-17T17:42:47.185Z,101919.65
2023-05-17T17:45:13.896Z,101922.27
2023-05-17T17:47:42.097Z,101924.90
2023-05-17T17:50:09.660Z,101931.52
2023-05-17T17:52:37.275Z,101928.45
2023-05-17T17:55:04.270Z,101928.17
2023-05-17T17:57:32.071Z,101928.43
2023-05-17T17:59:58.789Z,101933.70
2023-05-17T18:02:25.669Z,101929.70
2023-05-17T18:04:52.463Z,101936.14
2023-05-17T18:07:19.226Z,101936.02
2023-05-17T18:09:46.071Z,101931.34
2023-05-17T18:12:12.581Z,101933.27
2023-05-17T18:14:39.341Z,101934.67
2023-05-17T18:17:08.010Z,101933.90
2023-05-17T18:19:34.744Z,101933.20
2023-05-17T18:22:01.222Z,101934.10
2023-05-17T18:24:28.254Z,101940.50
2023-05-17T18:26:55.108Z,101939.86
2023-05-17T18:29:21.725Z,101944.45
2023-05-17T18:31:48.416Z,101944.84
2023-05-17T18:34:15.055Z,101944.48
2023-05-17T18:36:42.380Z,101948.02
2023-05-17T18:39:09.172Z,101948.52
2023-05-17T18:41:35.922Z,101949.23
2023-05-17T18:44:02.859Z,101950.73
2023-05-17T18:46:29.805Z,101953.70
2023-05-17T18:48:56.631Z,101955.65
2023-05-17T18:51:23.485Z,101958.10
2023-05-17T18:53:50.031Z,101954.27
2023-05-17T18:56:22.532Z,101951.25
2023-05-17T18:58:52.031Z,101959.16
2023-05-17T19:01:18.916Z,101959.48
2023-05-17T19:03:56.702Z,101959.95
2023-05-17T19:06:25.006Z,101962.54
2023-05-17T19:08:52.040Z,101967.23
2023-05-17T19:11:18.755Z,101973.82
2023-05-17T19:13:45.462Z,101975.21
2023-05-17T19:16:12.146Z,101975.23
2023-05-17T19:18:38.696Z,101978.84
2023-05-17T19:21:05.498Z,101980.65
2023-05-17T19:23:32.203Z,101979.91
2023-05-17T19:25:59.014Z,101981.05
2023-05-17T19:28:25.850Z,101987.24
2023-05-17T19:30:52.461Z,101985.05
2023-05-17T19:33:18.903Z,101992.78
2023-05-17T19:35:46.389Z,101991.51
2023-05-17T19:38:12.856Z,101994.41
2023-05-17T19:40:40.757Z,101997.31
2023-05-17T19:43:07.741Z,101999.24
2023-05-17T19:45:34.618Z,102001.62
2023-05-17T19:48:02.313Z,102002.16
2023-05-17T19:50:29.625Z,101999.92
2023-05-17T19:52:56.356Z,102003.35
2023-05-17T19:55:24.624Z,102004.47
2023-05-17T19:57:51.398Z,102006.52
2023-05-17T20:00:18.431Z,102006.97
2023-05-17T20:02:47.304Z,102006.20
2023-05-17T20:05:15.040Z,102011.66
2023-05-17T20:07:41.753Z,102010.98
2023-05-17T20:10:09.293Z,102012.29
2023-05-17T20:12:36.681Z,102013.45
2023-05-17T20:15:06.053Z,102013.87
2023-05-17T20:17:32.757Z,102015.86
2023-05-17T20:19:59.388Z,102016.28
2023-05-17T20:22:25.993Z,102017.48
2023-05-17T20:24:52.547Z,102017.73
2023-05-17T20:27:19.078Z,102017.09
2023-05-17T20:29:45.835Z,102017.89
2023-05-17T20:32:12.925Z,102019.54
2023-05-17T20:34:39.569Z,102023.11
2023-05-17T20:37:06.354Z,102026.33
2023-05-17T20:39:32.893Z,102026.27
2023-05-17T20:42:01.177Z,102030.73
2023-05-17T20:44:27.933Z,102033.27
2023-05-17T20:46:56.086Z,102031.05
2023-05-17T20:49:22.982Z,102030.05
2023-05-17T20:51:52.539Z,102030.03
2023-05-17T20:54:19.451Z,102032.52
2023-05-17T20:56:45.924Z,102030.93
2023-05-17T20:59:12.538Z,102032.14
2023-05-17T21:01:39.693Z,102036.87
2023-05-17T21:04:06.532Z,102037.95
2023-05-17T21:06:34.282Z,102036.48
2023-05-17T21:09:02.442Z,102038.70
2023-05-17T21:11:29.555Z,102039.75
2023-05-17T21:13:57.896Z,102039.01
2023-05-17T21:16:24.535Z,102041.30
2023-05-17T21:18:51.389Z,102043.05
2023-05-17T21:21:18.462Z,102044.98
2023-05-17T21:23:45.108Z,102044.39
2023-05-17T21:26:11.750Z,102045.54
2023-05-17T21:28:38.342Z,102047.35
2023-05-17T21:31:05.102Z,102045.71
2023-05-17T21:33:32.979Z,102043.85
2023-05-17T21:35:59.713Z,102040.47
2023-05-17T21:38:26.524Z,102045.46
2023-05-17T21:40:53.331Z,102045.75
2023-05-17T21:43:20.368Z,102047.98
2023-05-17T21:45:47.149Z,102048.09
2023-05-17T21:48:13.840Z,102051.29
2023-05-17T21:50:40.630Z,102050.87
2023-05-17T21:53:07.440Z,102053.08
2023-05-17T21:55:40.966Z,102055.21
2023-05-17T21:58:19.385Z,102055.48
2023-05-17T22:00:45.955Z,102053.72
2023-05-17T22:03:12.672Z,102056.05
2023-05-17T22:05:39.343Z,102059.46
2023-05-17T22:08:05.904Z,102062.37
2023-05-17T22:10:32.658Z,102062.90
2023-05-17T22:13:02.177Z,102062.58
2023-05-17T22:15:28.822Z,102065.73
2023-05-17T22:17:55.630Z,102065.28
2023-05-17T22:20:23.692Z,102070.80
2023-05-17T22:22:50.736Z,102075.52
2023-05-17T22:25:17.806Z,102077.86
2023-05-17T22:27:45.365Z,102081.96
2023-05-17T22:30:12.558Z,102079.66
2023-05-17T22:32:40.274Z,102084.20
2023-05-17T22:35:07.319Z,102083.14
2023-05-17T22:37:34.094Z,102077.52
2023-05-17T22:40:00.977Z,102075.14
2023-05-17T22:42:27.487Z,102077.12
2023-05-17T22:44:54.142Z,102076.71
2023-05-17T22:47:22.879Z,102074.52
2023-05-17T22:49:52.503Z,102074.52
2023-05-17T22:52:19.800Z,102075.52
2023-05-17T22:54:46.475Z,102077.66
2023-05-17T22:57:13.100Z,102075.94
2023-05-17T22:59:39.642Z,102075.81
2023-05-17T23:02:06.373Z,102076.52
2023-05-17T23:04:33.219Z,102079.95
2023-05-17T23:07:02.772Z,102075.79
2023-05-17T23:09:40.643Z,102080.09
2023-05-17T23:12:08.671Z,102077.00
2023-05-17T23:14:37.350Z,102075.02
2023-05-17T23:17:04.567Z,102072.33
2023-05-17T23:19:32.288Z,102065.00
2023-05-17T23:22:06.068Z,102071.80
2023-05-17T23:24:38.804Z,102072.88
2023-05-17T23:27:09.827Z,102073.77
2023-05-17T23:29:36.700Z,102069.54
2023-05-17T23:32:03.415Z,102070.74
2023-05-17T23:34:29.982Z,102071.59
2023-05-17T23:36:56.681Z,102072.52
2023-05-17T23:39:23.340Z,102072.56
2023-05-17T23:41:51.764Z,102071.83
2023-05-17T23:44:18.583Z,102077.35
2023-05-17T23:46:45.795Z,102077.53
2023-05-17T23:49:12.352Z,102076.66
2023-05-17T23:54:17.580Z,102072.27
2023-05-17T23:56:44.980Z,102072.16
2023-05-17T23:59:12.142Z,102074.26
